Terminal Aerodrome Forecast
Issued by NWS

Home | Current Version | Previous Version | Text Only | Print | Product List | Glossary On
Versions: 1 2 3 4 5 6 7 8 9 10 11 12 13 14 15 16 17 18 19 20
000
FTUS41 KOKX 231700
TAFSWF
TAF
KSWF 231731Z 2318/2424 20008KT P6SM SCT040
      TEMPO 2318/2320 3SM TSRA BKN040CB
     FM232000 25008KT P6SM BKN040
      TEMPO 2400/2403 28015G30KT 5SM TSRA BKN050CB
     FM240300 28008KT 5SM SHRA BR VCTS BKN040CB OVC120 PROB30
      2403/2407 3SM TSRA BKN035CB
     FM240700 32008KT P6SM BKN050 OVC150
     FM241500 35011KT P6SM BKN050 BKN150
     FM242100 35008KT P6SM SCT050 BKN200
      AMD NOT SKED=

USA.gov is the U.S. government's official web portal to all federal, state and local government web resources and services.